createdAt,value
2018-07-25T00:05:07.509Z,24.50
2018-07-25T00:10:00.764Z,24.40
2018-07-25T00:14:54.195Z,24.40
2018-07-25T00:19:47.420Z,24.30
2018-07-25T00:24:40.649Z,23.10
2018-07-25T00:29:33.859Z,24.10
2018-07-25T00:34:27.117Z,24.00
2018-07-25T00:39:20.352Z,24.00
2018-07-25T00:44:13.533Z,23.90
2018-07-25T00:54:00.021Z,23.80
2018-07-25T00:58:53.287Z,23.70
2018-07-25T01:03:46.549Z,23.60
2018-07-25T01:08:39.797Z,23.50
2018-07-25T01:23:19.323Z,23.20
2018-07-25T01:33:06.661Z,23.00
2018-07-25T01:37:59.910Z,23.10
2018-07-25T01:42:53.166Z,23.10
2018-07-25T01:47:46.379Z,23.00
2018-07-25T01:52:39.584Z,22.80
2018-07-25T01:57:32.812Z,22.70
2018-07-25T02:02:26.040Z,22.60
2018-07-25T02:12:12.437Z,22.50
2018-07-25T02:17:05.757Z,22.50
2018-07-25T02:26:52.102Z,22.50
2018-07-25T02:41:32.361Z,22.30
2018-07-25T02:51:18.769Z,22.20
2018-07-25T02:56:12.012Z,22.10
2018-07-25T03:01:05.305Z,22.10
2018-07-25T03:05:58.613Z,22.00
2018-07-25T03:15:45.096Z,22.00
2018-07-25T03:20:38.423Z,22.00
2018-07-25T03:25:31.617Z,21.90
2018-07-25T03:30:24.905Z,21.90
2018-07-25T03:35:18.107Z,21.80
2018-07-25T03:40:11.363Z,21.80
2018-07-25T03:45:04.649Z,21.80
2018-07-25T03:49:57.869Z,21.70
2018-07-25T03:54:51.106Z,21.60
2018-07-25T03:59:44.317Z,21.60
2018-07-25T04:04:37.566Z,21.60
2018-07-25T04:09:30.880Z,21.50
2018-07-25T04:19:17.204Z,21.60
2018-07-25T04:24:10.525Z,21.70
2018-07-25T04:29:03.849Z,21.80
2018-07-25T04:33:57.053Z,22.00
2018-07-25T04:38:50.321Z,22.00
2018-07-25T04:43:43.530Z,22.10
2018-07-25T04:48:36.762Z,22.20
2018-07-25T04:53:29.936Z,22.40
2018-07-25T04:58:23.163Z,22.60
2018-07-25T05:03:16.391Z,22.80
2018-07-25T05:13:02.998Z,23.50
2018-07-25T05:17:56.475Z,25.10
2018-07-25T05:32:36.224Z,27.90
2018-07-25T05:37:29.473Z,28.40
2018-07-25T05:42:22.699Z,29.20
2018-07-25T05:52:09.087Z,32.30
2018-07-25T05:57:02.339Z,33.40
2018-07-25T06:01:55.612Z,33.40
2018-07-25T06:06:48.857Z,33.80
2018-07-25T06:11:42.125Z,34.60
2018-07-25T06:16:35.425Z,36.00
2018-07-25T06:26:21.746Z,35.40
2018-07-25T06:31:15.011Z,35.10
2018-07-25T06:36:08.211Z,36.10
2018-07-25T06:45:54.625Z,37.90
2018-07-25T06:50:47.905Z,36.00
2018-07-25T07:00:34.291Z,36.00
2018-07-25T07:05:27.541Z,37.90
2018-07-25T07:10:20.815Z,40.00
2018-07-25T07:15:14.066Z,37.70
2018-07-25T07:20:07.393Z,36.60
2018-07-25T07:29:53.747Z,38.50
2018-07-25T07:34:46.951Z,39.00
2018-07-25T07:39:40.211Z,39.60
2018-07-25T07:44:33.427Z,41.10
2018-07-25T07:49:26.681Z,39.40
2018-07-25T07:54:19.937Z,40.90
2018-07-25T07:59:13.119Z,42.40
2018-07-25T08:04:06.615Z,41.80
2018-07-25T08:08:59.863Z,42.40
2018-07-25T08:13:53.091Z,41.60
2018-07-25T08:18:46.311Z,41.70
2018-07-25T08:23:39.853Z,42.60
2018-07-25T08:33:26.267Z,43.10
2018-07-25T08:38:41.926Z,43.70
2018-07-25T08:43:36.601Z,43.70
2018-07-25T08:48:29.888Z,43.00
2018-07-25T08:58:16.210Z,43.30
2018-07-25T09:03:09.441Z,43.50
2018-07-25T09:08:02.639Z,42.40
2018-07-25T09:12:55.928Z,41.90
2018-07-25T09:17:49.164Z,42.50
2018-07-25T09:22:42.365Z,42.90
2018-07-25T09:27:35.608Z,43.30
2018-07-25T09:32:28.841Z,42.70
2018-07-25T09:42:15.243Z,42.60
2018-07-25T09:47:08.577Z,42.70
2018-07-25T09:52:01.769Z,42.80
2018-07-25T09:56:54.986Z,42.10
2018-07-25T10:01:55.000Z,42.60
2018-07-25T10:06:48.192Z,41.80
2018-07-25T10:11:41.438Z,42.10
2018-07-25T10:16:34.685Z,41.40
2018-07-25T10:21:27.920Z,40.70
2018-07-25T10:26:21.194Z,40.60
2018-07-25T10:31:14.462Z,39.00
2018-07-25T10:36:07.651Z,38.30
2018-07-25T10:41:01.444Z,38.10
2018-07-25T10:50:47.853Z,37.30
2018-07-25T10:55:41.061Z,37.20
2018-07-25T11:05:27.477Z,36.80
2018-07-25T11:10:20.709Z,36.80
2018-07-25T11:15:13.937Z,36.90
2018-07-25T11:20:07.299Z,36.90
2018-07-25T11:25:00.614Z,36.70
2018-07-25T11:29:53.885Z,36.40
2018-07-25T11:34:47.091Z,36.10
2018-07-25T11:39:40.336Z,36.00
2018-07-25T11:44:33.714Z,36.20
2018-07-25T11:49:27.904Z,36.20
2018-07-25T11:54:21.242Z,34.60
2018-07-25T11:59:19.665Z,35.50
2018-07-25T12:04:15.807Z,34.00
2018-07-25T12:09:11.757Z,35.50
2018-07-25T12:14:05.081Z,35.20
2018-07-25T12:18:58.527Z,35.20
2018-07-25T12:28:45.080Z,35.90
2018-07-25T12:33:38.813Z,36.00
2018-07-25T12:38:34.129Z,35.50
2018-07-25T12:43:27.561Z,36.00
2018-07-25T12:48:21.965Z,36.30
2018-07-25T13:07:57.371Z,37.20
2018-07-25T13:12:50.662Z,37.00
2018-07-25T13:17:43.922Z,36.80
2018-07-25T13:22:37.208Z,36.40
2018-07-25T13:27:30.423Z,36.50
2018-07-25T13:32:23.901Z,36.30
2018-07-25T13:37:17.173Z,36.30
2018-07-25T13:42:11.330Z,36.30
2018-07-25T13:47:04.814Z,36.50
2018-07-25T13:51:58.080Z,37.10
2018-07-25T13:56:51.303Z,37.90
2018-07-25T14:01:44.533Z,39.10
2018-07-25T14:06:37.754Z,39.80
2018-07-25T14:11:31.006Z,39.70
2018-07-25T14:16:24.277Z,38.70
2018-07-25T14:26:10.909Z,35.60
2018-07-25T14:31:04.194Z,35.50
2018-07-25T14:35:58.041Z,35.00
2018-07-25T14:40:51.560Z,34.60
2018-07-25T14:45:44.857Z,34.20
2018-07-25T14:50:38.103Z,34.00
2018-07-25T14:55:31.393Z,34.10
2018-07-25T15:05:18.136Z,34.70
2018-07-25T15:10:11.484Z,34.80
2018-07-25T15:15:05.410Z,35.10
2018-07-25T15:19:58.656Z,35.30
2018-07-25T15:24:51.917Z,35.30
2018-07-25T15:29:45.201Z,35.30
2018-07-25T15:34:38.454Z,35.40
2018-07-25T15:39:31.747Z,35.10
2018-07-25T15:44:25.928Z,35.00
2018-07-25T15:49:19.354Z,35.30
2018-07-25T15:54:12.718Z,35.80
2018-07-25T15:59:06.440Z,35.70
2018-07-25T16:04:00.051Z,35.80
2018-07-25T16:08:53.384Z,35.90
2018-07-25T16:13:46.909Z,35.70
2018-07-25T16:18:40.771Z,35.70
2018-07-25T16:23:34.139Z,35.70
2018-07-25T16:33:20.653Z,35.70
2018-07-25T16:38:13.931Z,35.40
2018-07-25T16:43:13.773Z,35.30
2018-07-25T16:48:07.017Z,35.30
2018-07-25T16:53:00.269Z,35.20
2018-07-25T16:57:53.918Z,34.80
2018-07-25T17:07:40.332Z,34.70
2018-07-25T17:12:33.598Z,34.70
2018-07-25T17:17:26.856Z,34.70
2018-07-25T17:22:20.354Z,34.60
2018-07-25T17:27:13.564Z,34.50
2018-07-25T17:32:06.873Z,34.60
2018-07-25T17:37:00.171Z,34.30
2018-07-25T17:41:53.428Z,34.10
2018-07-25T17:46:46.700Z,34.10
2018-07-25T17:56:34.016Z,33.70
2018-07-25T18:01:27.256Z,33.40
2018-07-25T18:06:20.523Z,33.10
2018-07-25T18:11:13.805Z,32.70
2018-07-25T18:16:07.166Z,32.60
2018-07-25T18:21:00.648Z,32.40
2018-07-25T18:25:53.843Z,32.10
2018-07-25T18:30:47.132Z,31.80
2018-07-25T18:35:40.451Z,31.70
2018-07-25T18:40:33.663Z,31.50
2018-07-25T18:45:26.945Z,31.30
2018-07-25T18:50:20.167Z,31.10
2018-07-25T18:55:13.401Z,30.80
2018-07-25T19:00:06.838Z,30.60
2018-07-25T19:05:00.075Z,30.50
2018-07-25T19:09:53.295Z,30.30
2018-07-25T19:19:45.327Z,30.00
2018-07-25T19:24:38.560Z,29.90
2018-07-25T19:29:31.787Z,29.70
2018-07-25T19:34:25.018Z,29.50
2018-07-25T19:39:18.243Z,29.50
2018-07-25T19:44:11.479Z,29.30
2018-07-25T19:49:04.912Z,29.20
2018-07-25T19:53:59.792Z,29.10
2018-07-25T19:59:02.226Z,29.00
2018-07-25T20:03:59.326Z,28.80
2018-07-25T20:14:04.971Z,28.50
2018-07-25T20:18:58.414Z,28.40
2018-07-25T20:23:51.657Z,28.30
2018-07-25T20:28:44.915Z,28.20
2018-07-25T20:33:38.156Z,28.00
2018-07-25T20:38:31.394Z,27.90
2018-07-25T20:43:24.597Z,27.70
2018-07-25T20:48:17.788Z,27.70
2018-07-25T20:53:11.054Z,27.60
2018-07-25T20:58:04.494Z,27.50
2018-07-25T21:02:58.964Z,27.50
2018-07-25T21:07:52.217Z,27.40
2018-07-25T21:17:38.617Z,27.20
2018-07-25T21:22:31.910Z,27.10
2018-07-25T21:27:25.298Z,27.00
2018-07-25T21:32:18.780Z,26.90
2018-07-25T21:37:12.012Z,26.90
2018-07-25T21:42:05.271Z,26.80
2018-07-25T21:46:58.487Z,26.70
2018-07-25T21:51:51.763Z,26.60
2018-07-25T21:56:44.984Z,26.60
2018-07-25T22:01:38.236Z,26.40
2018-07-25T22:11:24.694Z,26.40
2018-07-25T22:16:17.928Z,26.20
2018-07-25T22:21:11.202Z,26.20
2018-07-25T22:26:04.486Z,26.20
2018-07-25T22:30:57.835Z,26.10
2018-07-25T22:35:51.068Z,26.00
2018-07-25T22:40:44.321Z,25.90
2018-07-25T22:45:37.579Z,25.80
2018-07-25T22:50:30.914Z,25.70
2018-07-25T22:55:24.193Z,25.60
2018-07-25T23:00:17.416Z,25.50
2018-07-25T23:10:04.820Z,25.30
2018-07-25T23:14:58.043Z,25.30
2018-07-25T23:19:51.280Z,25.20
2018-07-25T23:24:45.232Z,25.20
2018-07-25T23:29:38.588Z,25.20
2018-07-25T23:34:31.823Z,25.10
2018-07-25T23:39:25.066Z,25.20
2018-07-25T23:49:11.443Z,25.00
2018-07-25T23:54:04.887Z,24.90
2018-07-25T23:58:58.158Z,24.90
